createdAt,value
2022-07-25T00:01:37.757Z,23.24
2022-07-25T00:04:05.257Z,23.22
2022-07-25T00:06:32.154Z,23.24
2022-07-25T00:08:58.999Z,23.21
2022-07-25T00:11:25.508Z,23.13
2022-07-25T00:13:52.031Z,22.93
2022-07-25T00:16:18.710Z,22.99
2022-07-25T00:18:45.421Z,22.99
2022-07-25T00:21:11.933Z,23.00
2022-07-25T00:23:38.421Z,23.03
2022-07-25T00:26:05.119Z,22.96
2022-07-25T00:28:32.625Z,22.94
2022-07-25T00:30:59.351Z,22.95
2022-07-25T00:33:26.019Z,22.96
2022-07-25T00:35:52.436Z,22.94
2022-07-25T00:38:18.960Z,22.93
2022-07-25T00:40:45.445Z,22.87
2022-07-25T00:43:20.983Z,22.67
2022-07-25T00:45:47.389Z,22.62
2022-07-25T00:48:13.974Z,22.60
2022-07-25T00:50:40.595Z,22.60
2022-07-25T00:53:07.080Z,22.52
2022-07-25T00:55:33.825Z,22.50
2022-07-25T00:58:00.267Z,22.45
2022-07-25T01:00:26.818Z,22.42
2022-07-25T01:02:53.376Z,22.38
2022-07-25T01:05:19.912Z,22.37
2022-07-25T01:07:47.325Z,22.32
2022-07-25T01:10:14.001Z,22.33
2022-07-25T01:12:54.878Z,22.29
2022-07-25T01:15:23.876Z,22.22
2022-07-25T01:17:50.814Z,22.12
2022-07-25T01:20:22.498Z,22.08
2022-07-25T01:22:49.313Z,22.06
2022-07-25T01:25:16.906Z,22.00
2022-07-25T01:27:43.868Z,21.95
2022-07-25T01:30:12.890Z,21.93
2022-07-25T01:32:40.101Z,21.86
2022-07-25T01:35:07.988Z,21.78
2022-07-25T01:37:34.737Z,21.79
2022-07-25T01:40:01.760Z,21.75
2022-07-25T01:42:28.633Z,21.70
2022-07-25T01:44:55.865Z,21.65
2022-07-25T01:47:22.552Z,21.63
2022-07-25T01:49:49.439Z,21.53
2022-07-25T01:52:16.086Z,21.56
2022-07-25T01:54:43.458Z,21.55
2022-07-25T01:57:10.279Z,21.54
2022-07-25T01:59:39.433Z,21.50
2022-07-25T02:02:07.409Z,21.44
2022-07-25T02:04:35.114Z,21.45
2022-07-25T02:07:02.682Z,21.46
2022-07-25T02:09:29.161Z,21.44
2022-07-25T02:11:56.240Z,21.40
2022-07-25T02:14:23.556Z,21.34
2022-07-25T02:16:50.336Z,21.29
2022-07-25T02:19:16.889Z,21.28
2022-07-25T02:21:43.357Z,21.24
2022-07-25T02:24:10.233Z,21.25
2022-07-25T02:26:36.820Z,21.30
2022-07-25T02:29:04.059Z,21.28
2022-07-25T02:31:30.565Z,21.27
2022-07-25T02:33:59.243Z,21.27
2022-07-25T02:36:25.770Z,21.24
2022-07-25T02:38:52.325Z,21.27
2022-07-25T02:41:18.838Z,21.25
2022-07-25T02:43:45.305Z,21.25
2022-07-25T02:46:12.031Z,21.24
2022-07-25T02:48:38.754Z,21.19
2022-07-25T02:51:05.349Z,21.16
2022-07-25T02:53:55.542Z,21.10
2022-07-25T02:56:18.323Z,21.03
2022-07-25T02:58:47.871Z,21.07
2022-07-25T03:01:14.479Z,21.04
2022-07-25T03:03:41.200Z,21.02
2022-07-25T03:06:08.022Z,21.02
2022-07-25T03:08:34.657Z,20.96
2022-07-25T03:11:01.091Z,20.96
2022-07-25T03:13:27.635Z,20.95
2022-07-25T03:15:54.063Z,20.91
2022-07-25T03:18:20.731Z,20.83
2022-07-25T03:20:47.191Z,20.82
2022-07-25T03:23:13.713Z,20.78
2022-07-25T03:28:06.994Z,20.73
2022-07-25T03:30:33.419Z,20.71
2022-07-25T03:32:59.853Z,20.68
2022-07-25T03:35:26.439Z,20.68
2022-07-25T03:37:53.972Z,20.70
2022-07-25T03:40:20.642Z,20.60
2022-07-25T03:42:47.188Z,20.49
2022-07-25T03:45:13.701Z,20.46
2022-07-25T03:47:40.212Z,20.45
2022-07-25T03:50:06.924Z,20.43
2022-07-25T03:52:33.368Z,20.46
2022-07-25T03:54:59.980Z,20.51
2022-07-25T03:57:26.419Z,20.48
2022-07-25T03:59:53.042Z,20.46
2022-07-25T04:02:19.723Z,20.46
2022-07-25T04:04:46.670Z,20.46
2022-07-25T04:07:13.085Z,20.47
2022-07-25T04:09:39.625Z,20.51
2022-07-25T04:12:06.284Z,20.48
2022-07-25T04:14:32.836Z,20.51
2022-07-25T04:17:01.578Z,20.47
2022-07-25T04:19:28.819Z,20.51
2022-07-25T04:21:55.720Z,20.49
2022-07-25T04:24:22.170Z,20.54
2022-07-25T04:26:49.188Z,20.58
2022-07-25T04:29:15.954Z,20.61
2022-07-25T04:31:42.474Z,20.67
2022-07-25T04:34:09.295Z,20.63
2022-07-25T04:36:36.210Z,20.68
2022-07-25T04:39:02.875Z,20.66
2022-07-25T04:41:29.360Z,20.69
2022-07-25T04:43:55.838Z,20.68
2022-07-25T04:46:23.088Z,20.73
2022-07-25T04:48:51.357Z,20.72
2022-07-25T04:51:18.719Z,20.73
2022-07-25T04:53:45.680Z,20.72
2022-07-25T04:56:12.527Z,20.74
2022-07-25T04:58:39.034Z,20.78
2022-07-25T05:01:05.883Z,20.80
2022-07-25T05:03:32.367Z,20.74
2022-07-25T05:05:59.013Z,20.80
2022-07-25T05:08:25.476Z,20.85
2022-07-25T05:10:51.934Z,20.85
2022-07-25T05:13:20.564Z,20.89
2022-07-25T05:15:47.025Z,20.95
2022-07-25T05:18:13.517Z,21.01
2022-07-25T05:20:40.068Z,21.07
2022-07-25T05:23:06.662Z,21.10
2022-07-25T05:25:33.308Z,21.13
2022-07-25T05:27:59.943Z,21.20
2022-07-25T05:30:26.494Z,21.20
2022-07-25T05:32:54.077Z,21.32
2022-07-25T05:35:20.577Z,21.40
2022-07-25T05:37:47.178Z,21.50
2022-07-25T05:40:13.679Z,21.48
2022-07-25T05:42:40.189Z,21.57
2022-07-25T05:45:07.208Z,21.64
2022-07-25T05:47:33.750Z,21.69
2022-07-25T05:50:00.875Z,21.73
2022-07-25T05:52:27.625Z,21.85
2022-07-25T05:54:54.265Z,21.94
2022-07-25T05:57:20.677Z,22.00
2022-07-25T05:59:47.145Z,22.24
2022-07-25T06:02:13.883Z,22.34
2022-07-25T06:04:40.404Z,22.43
2022-07-25T06:07:07.006Z,22.51
2022-07-25T06:09:34.995Z,22.53
2022-07-25T06:12:01.689Z,22.51
2022-07-25T06:14:29.592Z,22.68
2022-07-25T06:16:56.787Z,22.70
2022-07-25T06:19:23.516Z,22.66
2022-07-25T06:21:50.118Z,22.64
2022-07-25T06:24:16.569Z,22.60
2022-07-25T06:26:43.148Z,22.61
2022-07-25T06:29:09.629Z,22.60
2022-07-25T06:31:36.091Z,22.72
2022-07-25T06:34:02.938Z,22.83
2022-07-25T06:36:32.343Z,22.96
2022-07-25T06:38:59.099Z,23.03
2022-07-25T06:41:25.524Z,23.16
2022-07-25T06:43:51.957Z,23.13
2022-07-25T06:46:18.761Z,23.03
2022-07-25T06:48:45.505Z,22.91
2022-07-25T06:51:12.238Z,22.81
2022-07-25T06:53:38.653Z,22.79
2022-07-25T06:56:05.566Z,22.76
2022-07-25T06:58:32.072Z,22.77
2022-07-25T07:01:01.170Z,22.74
2022-07-25T07:03:28.211Z,22.72
2022-07-25T07:05:54.930Z,22.58
2022-07-25T07:08:21.354Z,22.44
2022-07-25T07:10:48.037Z,22.36
2022-07-25T07:13:23.905Z,22.38
2022-07-25T07:15:51.028Z,22.31
2022-07-25T07:18:18.792Z,22.29
2022-07-25T07:20:45.867Z,22.26
2022-07-25T07:23:16.711Z,22.21
2022-07-25T07:25:46.807Z,22.27
2022-07-25T07:28:13.456Z,22.18
2022-07-25T07:31:13.551Z,22.19
2022-07-25T07:33:26.573Z,22.26
2022-07-25T07:35:53.111Z,22.18
2022-07-25T07:38:19.801Z,22.20
2022-07-25T07:40:46.268Z,22.31
2022-07-25T07:43:12.730Z,22.28
2022-07-25T07:45:39.174Z,22.26
2022-07-25T07:48:06.594Z,22.13
2022-07-25T07:50:33.389Z,22.09
2022-07-25T07:53:00.240Z,22.03
2022-07-25T07:55:45.358Z,22.04
2022-07-25T07:58:17.333Z,22.03
2022-07-25T08:00:54.322Z,21.99
2022-07-25T08:03:21.695Z,21.82
2022-07-25T08:05:49.792Z,21.79
2022-07-25T08:08:16.279Z,21.60
2022-07-25T08:10:45.451Z,21.59
2022-07-25T08:13:17.718Z,21.65
2022-07-25T08:15:46.311Z,21.56
2022-07-25T08:18:17.581Z,21.54
2022-07-25T08:20:45.498Z,21.50
2022-07-25T08:23:12.077Z,21.68
2022-07-25T08:25:39.173Z,21.81
2022-07-25T08:28:08.430Z,21.68
2022-07-25T08:30:36.725Z,21.55
2022-07-25T08:33:06.011Z,21.67
2022-07-25T08:35:34.169Z,21.72
2022-07-25T08:38:01.485Z,21.79
2022-07-25T08:42:56.549Z,21.84
2022-07-25T08:45:23.301Z,21.79
2022-07-25T08:47:51.736Z,21.76
2022-07-25T08:50:21.014Z,21.69
2022-07-25T08:52:48.994Z,21.66
2022-07-25T08:55:21.967Z,21.78
2022-07-25T08:57:53.306Z,22.31
2022-07-25T09:00:23.420Z,22.59
2022-07-25T09:03:02.188Z,22.70
2022-07-25T09:05:31.956Z,22.71
2022-07-25T09:08:07.066Z,22.58
2022-07-25T09:10:33.798Z,22.52
2022-07-25T09:13:03.094Z,22.31
2022-07-25T09:15:35.498Z,22.34
2022-07-25T09:18:08.143Z,22.39
2022-07-25T09:20:45.632Z,22.46
2022-07-25T09:23:14.459Z,22.55
2022-07-25T09:25:41.406Z,22.68
2022-07-25T09:28:15.443Z,22.84
2022-07-25T09:30:58.089Z,22.81
2022-07-25T09:33:26.141Z,23.16
2022-07-25T09:35:53.846Z,23.24
2022-07-25T09:38:21.402Z,23.10
2022-07-25T09:41:01.687Z,23.00
2022-07-25T09:43:43.116Z,22.77
2022-07-25T09:46:11.671Z,22.68
2022-07-25T09:48:40.481Z,22.63
2022-07-25T09:51:07.573Z,22.60
2022-07-25T09:53:34.144Z,22.53
2022-07-25T09:56:01.066Z,22.38
2022-07-25T09:58:28.652Z,22.34
2022-07-25T10:01:06.072Z,22.25
2022-07-25T10:03:52.766Z,22.34
2022-07-25T10:06:47.803Z,22.45
2022-07-25T10:09:14.576Z,22.31
2022-07-25T10:11:41.417Z,22.35
2022-07-25T10:14:12.496Z,22.45
2022-07-25T10:16:47.051Z,22.56
2022-07-25T10:19:14.046Z,22.72
2022-07-25T10:21:40.965Z,22.89
2022-07-25T10:24:09.932Z,23.30
2022-07-25T10:26:42.122Z,23.58
2022-07-25T10:29:10.650Z,23.50
2022-07-25T10:31:49.502Z,23.37
2022-07-25T10:34:28.518Z,23.56
2022-07-25T10:36:58.973Z,23.45
2022-07-25T10:39:25.479Z,23.35
2022-07-25T10:42:02.811Z,23.26
2022-07-25T10:44:41.501Z,23.28
2022-07-25T10:47:13.031Z,23.02
2022-07-25T10:49:55.116Z,22.97
2022-07-25T10:52:29.243Z,22.87
2022-07-25T10:55:01.320Z,22.87
2022-07-25T10:57:32.015Z,22.84
2022-07-25T11:00:07.078Z,22.90
2022-07-25T11:02:34.106Z,22.88
2022-07-25T11:05:03.181Z,22.95
2022-07-25T11:07:36.022Z,22.82
2022-07-25T11:10:05.347Z,22.71
2022-07-25T11:12:32.325Z,22.47
2022-07-25T11:15:04.283Z,22.61
2022-07-25T11:17:30.784Z,22.67
2022-07-25T11:20:01.082Z,22.54
2022-07-25T11:22:28.923Z,22.45
2022-07-25T11:24:57.786Z,22.37
2022-07-25T11:27:32.609Z,22.39
2022-07-25T11:30:14.343Z,22.40
2022-07-25T11:32:41.638Z,22.16
2022-07-25T11:35:10.664Z,22.28
2022-07-25T11:37:38.513Z,22.32
2022-07-25T11:40:06.914Z,22.16
2022-07-25T11:42:45.974Z,22.04
2022-07-25T11:45:18.134Z,22.13
2022-07-25T11:47:45.204Z,22.32
2022-07-25T11:50:14.879Z,22.38
2022-07-25T11:52:43.370Z,22.50
2022-07-25T11:55:13.876Z,22.72
2022-07-25T11:57:44.371Z,22.85
2022-07-25T12:00:19.692Z,23.06
2022-07-25T12:02:47.483Z,23.12
2022-07-25T12:05:16.740Z,23.12
2022-07-25T12:07:52.334Z,23.06
2022-07-25T12:10:24.595Z,23.15
2022-07-25T12:12:56.341Z,22.96
2022-07-25T12:15:27.294Z,22.66
2022-07-25T12:17:55.577Z,22.53
2022-07-25T12:20:23.773Z,22.45
2022-07-25T12:22:53.102Z,22.40
2022-07-25T12:25:19.945Z,22.35
2022-07-25T12:27:46.854Z,22.44
2022-07-25T12:30:14.785Z,22.39
2022-07-25T12:32:41.800Z,22.33
2022-07-25T12:35:11.019Z,22.34
2022-07-25T12:37:38.127Z,22.45
2022-07-25T12:40:05.710Z,22.89
2022-07-25T12:42:32.248Z,23.16
2022-07-25T12:44:59.009Z,23.45
2022-07-25T12:47:27.194Z,23.43
2022-07-25T12:49:54.514Z,23.62
2022-07-25T12:52:21.582Z,23.76
2022-07-25T12:54:48.259Z,23.81
2022-07-25T12:57:15.394Z,23.53
2022-07-25T12:59:42.574Z,23.78
2022-07-25T13:02:09.172Z,23.52
2022-07-25T13:04:35.809Z,23.31
2022-07-25T13:07:02.429Z,23.35
2022-07-25T13:09:29.205Z,23.35
2022-07-25T13:11:56.191Z,23.25
2022-07-25T13:14:23.107Z,23.33
2022-07-25T13:16:49.753Z,23.67
2022-07-25T13:19:17.065Z,23.58
2022-07-25T13:21:44.385Z,23.25
2022-07-25T13:24:11.559Z,23.28
2022-07-25T13:26:39.319Z,23.41
2022-07-25T13:29:09.529Z,23.48
2022-07-25T13:31:40.956Z,23.53
2022-07-25T13:34:08.676Z,23.43
2022-07-25T13:36:36.645Z,23.53
2022-07-25T13:39:04.531Z,23.41
2022-07-25T13:41:31.958Z,23.32
2022-07-25T13:43:59.230Z,23.31
2022-07-25T13:46:25.889Z,23.09
2022-07-25T13:48:53.288Z,22.93
2022-07-25T13:51:19.761Z,22.90
2022-07-25T13:53:46.265Z,22.94
2022-07-25T13:56:15.760Z,22.94
2022-07-25T13:58:43.084Z,22.83
2022-07-25T14:01:11.433Z,22.75
2022-07-25T14:03:39.385Z,22.58
2022-07-25T14:06:09.426Z,22.92
2022-07-25T14:08:36.070Z,23.12
2022-07-25T14:11:02.774Z,23.09
2022-07-25T14:13:29.424Z,22.84
2022-07-25T14:15:55.934Z,22.73
2022-07-25T14:18:22.631Z,22.74
2022-07-25T14:20:50.074Z,23.02
2022-07-25T14:23:16.935Z,23.25
2022-07-25T14:25:43.386Z,23.23
2022-07-25T14:28:09.873Z,23.01
2022-07-25T14:30:36.819Z,22.78
2022-07-25T14:33:03.566Z,22.61
2022-07-25T14:35:32.587Z,22.60
2022-07-25T14:37:59.551Z,22.76
2022-07-25T14:40:26.301Z,22.71
2022-07-25T14:42:52.985Z,22.45
2022-07-25T14:45:21.811Z,22.42
2022-07-25T14:47:48.309Z,22.41
2022-07-25T14:50:14.834Z,22.47
2022-07-25T14:52:41.397Z,22.68
2022-07-25T14:55:08.490Z,22.66
2022-07-25T14:57:34.978Z,22.80
2022-07-25T15:00:02.125Z,22.76
2022-07-25T15:02:28.731Z,22.51
2022-07-25T15:04:55.276Z,22.48
2022-07-25T15:07:22.047Z,22.51
2022-07-25T15:09:48.482Z,22.42
2022-07-25T15:12:17.095Z,22.57
2022-07-25T15:14:43.838Z,22.59
2022-07-25T15:17:10.472Z,22.54
2022-07-25T15:19:37.018Z,22.51
2022-07-25T15:22:03.554Z,22.47
2022-07-25T15:24:36.309Z,22.60
2022-07-25T15:27:10.846Z,22.59
2022-07-25T15:29:37.474Z,22.71
2022-07-25T15:32:05.458Z,22.79
2022-07-25T15:34:33.249Z,22.99
2022-07-25T15:36:59.710Z,22.71
2022-07-25T15:39:26.170Z,22.63
2022-07-25T15:41:52.799Z,22.67
2022-07-25T15:44:19.587Z,22.66
2022-07-25T15:46:46.330Z,22.84
2022-07-25T15:49:15.304Z,22.73
2022-07-25T15:51:41.929Z,22.84
2022-07-25T15:54:08.569Z,22.78
2022-07-25T15:56:35.314Z,22.68
2022-07-25T15:59:02.001Z,22.57
2022-07-25T16:01:28.667Z,22.39
2022-07-25T16:03:59.755Z,22.43
2022-07-25T16:06:27.551Z,22.55
2022-07-25T16:08:54.124Z,22.46
2022-07-25T16:11:20.600Z,22.47
2022-07-25T16:13:47.267Z,22.45
2022-07-25T16:16:13.887Z,22.43
2022-07-25T16:18:40.649Z,22.41
2022-07-25T16:21:07.064Z,22.41
2022-07-25T16:23:38.410Z,22.28
2022-07-25T16:26:08.466Z,22.35
2022-07-25T16:28:36.406Z,22.11
2022-07-25T16:31:03.318Z,21.97
2022-07-25T16:33:30.007Z,22.13
2022-07-25T16:35:59.798Z,22.11
2022-07-25T16:38:27.429Z,22.19
2022-07-25T16:40:53.858Z,22.13
2022-07-25T16:43:21.010Z,22.01
2022-07-25T16:45:47.542Z,21.99
2022-07-25T16:48:14.105Z,21.97
2022-07-25T16:50:40.720Z,22.11
2022-07-25T16:53:07.543Z,22.22
2022-07-25T16:55:34.172Z,22.26
2022-07-25T16:58:00.798Z,22.18
2022-07-25T17:00:27.362Z,22.06
2022-07-25T17:02:53.851Z,22.04
2022-07-25T17:05:20.627Z,22.02
2022-07-25T17:07:49.843Z,21.88
2022-07-25T17:10:16.319Z,21.92
2022-07-25T17:12:42.909Z,21.79
2022-07-25T17:15:09.889Z,21.70
2022-07-25T17:17:36.372Z,21.56
2022-07-25T17:20:03.241Z,21.59
2022-07-25T17:22:29.639Z,21.42
2022-07-25T17:24:56.508Z,21.36
2022-07-25T17:27:23.048Z,21.28
2022-07-25T17:29:49.565Z,21.15
2022-07-25T17:32:16.010Z,21.11
2022-07-25T17:34:42.508Z,21.13
2022-07-25T17:37:10.007Z,21.05
2022-07-25T17:39:37.265Z,21.02
2022-07-25T17:42:07.180Z,20.98
2022-07-25T17:44:34.773Z,20.89
2022-07-25T17:47:02.873Z,20.92
2022-07-25T17:49:30.075Z,20.92
2022-07-25T17:51:56.713Z,20.81
2022-07-25T17:54:23.122Z,20.81
2022-07-25T17:56:49.657Z,20.72
2022-07-25T17:59:16.147Z,20.69
2022-07-25T18:01:42.822Z,20.68
2022-07-25T18:04:09.758Z,20.67
2022-07-25T18:06:36.482Z,20.72
2022-07-25T18:09:03.387Z,20.69
2022-07-25T18:11:29.891Z,20.56
2022-07-25T18:13:56.397Z,20.67
2022-07-25T18:16:22.997Z,20.65
2022-07-25T18:18:49.534Z,20.66
2022-07-25T18:21:16.352Z,20.61
2022-07-25T18:23:42.814Z,20.58
2022-07-25T18:26:09.428Z,20.59
2022-07-25T18:28:36.414Z,20.56
2022-07-25T18:31:02.947Z,20.52
2022-07-25T18:33:29.590Z,20.45
2022-07-25T18:35:56.210Z,20.45
2022-07-25T18:38:22.723Z,20.42
2022-07-25T18:40:51.625Z,20.50
2022-07-25T18:43:24.433Z,20.41
2022-07-25T18:45:53.300Z,20.38
2022-07-25T18:48:19.821Z,20.40
2022-07-25T18:50:47.108Z,20.28
2022-07-25T18:53:13.594Z,20.32
2022-07-25T18:55:41.492Z,20.34
2022-07-25T18:58:08.907Z,20.41
2022-07-25T19:00:35.482Z,20.45
2022-07-25T19:03:01.998Z,20.40
2022-07-25T19:05:28.524Z,20.39
2022-07-25T19:07:58.066Z,20.44
2022-07-25T19:10:24.637Z,20.38
2022-07-25T19:12:51.093Z,20.42
2022-07-25T19:15:17.536Z,20.35
2022-07-25T19:17:44.519Z,20.31
2022-07-25T19:20:11.352Z,20.25
2022-07-25T19:22:37.930Z,20.25
2022-07-25T19:25:08.134Z,20.33
2022-07-25T19:27:35.394Z,20.23
2022-07-25T19:30:01.902Z,20.17
2022-07-25T19:32:28.419Z,20.05
2022-07-25T19:34:55.080Z,20.05
2022-07-25T19:37:24.018Z,20.07
2022-07-25T19:39:51.248Z,20.01
2022-07-25T19:42:17.741Z,19.93
2022-07-25T19:44:44.243Z,19.93
2022-07-25T19:47:12.047Z,19.90
2022-07-25T19:49:40.074Z,19.87
2022-07-25T19:52:10.052Z,19.74
2022-07-25T19:54:37.300Z,19.80
2022-07-25T19:57:04.880Z,19.79
2022-07-25T19:59:31.711Z,19.72
2022-07-25T20:01:58.939Z,19.66
2022-07-25T20:04:25.515Z,19.61
2022-07-25T20:06:52.155Z,19.56
2022-07-25T20:09:18.593Z,19.53
2022-07-25T20:11:45.339Z,19.52
2022-07-25T20:14:12.324Z,19.53
2022-07-25T20:16:38.952Z,19.51
2022-07-25T20:19:08.088Z,19.52
2022-07-25T20:21:38.756Z,19.45
2022-07-25T20:24:05.489Z,19.48
2022-07-25T20:26:32.067Z,19.41
2022-07-25T20:28:59.058Z,19.43
2022-07-25T20:31:25.651Z,19.30
2022-07-25T20:33:52.444Z,19.29
2022-07-25T20:36:19.212Z,19.28
2022-07-25T20:38:45.673Z,19.33
2022-07-25T20:41:13.376Z,19.31
2022-07-25T20:43:40.654Z,19.23
2022-07-25T20:46:09.501Z,19.21
2022-07-25T20:48:36.255Z,19.18
2022-07-25T20:51:03.013Z,19.22
2022-07-25T20:53:29.732Z,19.20
2022-07-25T20:55:56.200Z,19.18
2022-07-25T20:58:22.734Z,19.16
2022-07-25T21:00:49.269Z,19.20
2022-07-25T21:03:15.888Z,19.19
2022-07-25T21:05:43.698Z,19.19
2022-07-25T21:08:12.995Z,19.13
2022-07-25T21:10:39.785Z,19.11
2022-07-25T21:13:06.495Z,19.08
2022-07-25T21:15:33.207Z,19.05
2022-07-25T21:17:59.712Z,19.10
2022-07-25T21:20:26.262Z,19.12
2022-07-25T21:22:55.238Z,19.10
2022-07-25T21:25:21.790Z,19.14
2022-07-25T21:27:48.307Z,19.12
2022-07-25T21:30:14.948Z,19.15
2022-07-25T21:32:41.806Z,19.12
2022-07-25T21:35:08.895Z,19.14
2022-07-25T21:37:35.321Z,19.16
2022-07-25T21:40:02.227Z,19.17
2022-07-25T21:42:29.426Z,19.19
2022-07-25T21:44:57.789Z,19.16
2022-07-25T21:47:24.270Z,19.18
2022-07-25T21:50:09.264Z,19.20
2022-07-25T21:52:35.812Z,19.27
2022-07-25T21:55:04.253Z,19.24
2022-07-25T21:57:31.470Z,19.32
2022-07-25T21:59:58.976Z,19.30
2022-07-25T22:02:25.934Z,19.30
2022-07-25T22:04:52.690Z,19.36
2022-07-25T22:07:19.324Z,19.32
2022-07-25T22:09:46.061Z,19.41
2022-07-25T22:12:12.629Z,19.47
2022-07-25T22:14:39.171Z,19.39
2022-07-25T22:17:05.893Z,19.42
2022-07-25T22:19:33.299Z,19.49
2022-07-25T22:22:00.093Z,19.59
2022-07-25T22:24:26.733Z,19.60
2022-07-25T22:26:53.456Z,19.61
2022-07-25T22:29:20.113Z,19.57
2022-07-25T22:31:46.582Z,19.60
2022-07-25T22:34:14.172Z,19.62
2022-07-25T22:36:40.959Z,19.65
2022-07-25T22:39:07.910Z,19.61
2022-07-25T22:41:34.902Z,19.66
2022-07-25T22:44:01.508Z,19.69
2022-07-25T22:46:29.271Z,19.63
2022-07-25T22:48:56.557Z,19.60
2022-07-25T22:51:23.483Z,19.65
2022-07-25T22:53:50.508Z,19.59
2022-07-25T22:56:17.312Z,19.57
2022-07-25T22:58:44.283Z,19.61
2022-07-25T23:01:13.764Z,19.60
2022-07-25T23:03:40.300Z,19.62
2022-07-25T23:06:07.198Z,19.60
2022-07-25T23:08:33.795Z,19.56
2022-07-25T23:11:00.315Z,19.55
2022-07-25T23:13:26.761Z,19.52
2022-07-25T23:15:53.297Z,19.51
2022-07-25T23:18:19.762Z,19.48
2022-07-25T23:20:46.294Z,19.46
2022-07-25T23:23:13.156Z,19.43
2022-07-25T23:25:39.753Z,19.43
2022-07-25T23:28:06.203Z,19.45
2022-07-25T23:30:36.689Z,19.39
2022-07-25T23:33:06.656Z,19.45
2022-07-25T23:35:33.184Z,19.35
2022-07-25T23:38:00.408Z,19.40
2022-07-25T23:40:27.562Z,19.37
2022-07-25T23:42:54.427Z,19.35
2022-07-25T23:45:21.730Z,19.29
2022-07-25T23:47:50.659Z,19.25
2022-07-25T23:50:18.293Z,19.26
2022-07-25T23:52:44.774Z,19.20
2022-07-25T23:55:11.413Z,19.19
2022-07-25T23:57:38.081Z,19.16
